createdAt,value
2018-05-02T00:01:12.482Z,5.10
2018-05-02T00:03:41.686Z,5.10
2018-05-02T00:06:11.017Z,5.10
2018-05-02T00:08:40.251Z,5.10
2018-05-02T00:11:09.576Z,5.10
2018-05-02T00:13:38.796Z,5.10
2018-05-02T00:16:08.034Z,5.10
2018-05-02T00:18:37.582Z,5.00
2018-05-02T00:21:06.790Z,4.90
2018-05-02T00:23:36.119Z,4.80
2018-05-02T00:26:05.344Z,4.80
2018-05-02T00:28:34.706Z,4.80
2018-05-02T00:31:03.890Z,4.80
2018-05-02T00:33:33.275Z,4.90
2018-05-02T00:36:02.500Z,4.80
2018-05-02T00:38:31.806Z,4.80
2018-05-02T00:41:01.022Z,4.80
2018-05-02T00:43:30.326Z,4.90
2018-05-02T00:46:00.313Z,4.70
2018-05-02T00:48:29.745Z,4.70
2018-05-02T00:50:59.040Z,4.70
2018-05-02T00:53:28.279Z,4.80
2018-05-02T00:55:57.497Z,4.70
2018-05-02T00:58:27.020Z,4.70
2018-05-02T01:00:56.244Z,4.70
2018-05-02T01:03:25.557Z,4.70
2018-05-02T01:05:54.769Z,4.70
2018-05-02T01:08:24.091Z,4.60
2018-05-02T01:10:53.317Z,4.50
2018-05-02T01:13:22.633Z,4.60
2018-05-02T01:15:52.739Z,4.80
2018-05-02T01:18:22.074Z,4.80
2018-05-02T01:20:52.059Z,4.80
2018-05-02T01:23:21.500Z,4.80
2018-05-02T01:25:51.578Z,4.80
2018-05-02T01:28:20.865Z,4.80
2018-05-02T01:30:50.171Z,4.80
2018-05-02T01:33:19.399Z,4.70
2018-05-02T01:35:48.722Z,4.70
2018-05-02T01:38:18.718Z,4.60
2018-05-02T01:40:48.039Z,4.60
2018-05-02T01:43:18.039Z,4.60
2018-05-02T01:45:47.418Z,4.60
2018-05-02T01:48:16.770Z,4.40
2018-05-02T01:50:46.155Z,4.40
2018-05-02T01:53:16.149Z,4.10
2018-05-02T01:55:45.472Z,4.10
2018-05-02T01:58:15.459Z,4.30
2018-05-02T02:00:44.782Z,4.30
2018-05-02T02:03:13.998Z,4.20
2018-05-02T02:05:44.100Z,4.20
2018-05-02T02:08:13.323Z,4.20
2018-05-02T02:10:42.648Z,4.20
2018-05-02T02:13:11.866Z,4.20
2018-05-02T02:15:41.189Z,4.10
2018-05-02T02:18:10.411Z,4.20
2018-05-02T02:20:40.539Z,4.30
2018-05-02T02:23:10.527Z,4.40
2018-05-02T02:25:39.838Z,4.40
2018-05-02T02:28:09.069Z,4.40
2018-05-02T02:30:38.395Z,4.40
2018-05-02T02:33:07.615Z,4.30
2018-05-02T02:35:36.845Z,4.20
2018-05-02T02:38:06.165Z,4.20
2018-05-02T02:40:35.385Z,4.20
2018-05-02T02:43:04.768Z,4.20
2018-05-02T02:45:33.987Z,4.10
2018-05-02T02:48:03.319Z,4.10
2018-05-02T02:50:32.531Z,4.10
2018-05-02T02:53:01.923Z,4.20
2018-05-02T02:55:31.139Z,4.10
2018-05-02T02:58:00.463Z,4.10
2018-05-02T03:00:30.463Z,4.00
2018-05-02T03:02:59.775Z,4.00
2018-05-02T03:05:29.071Z,4.00
2018-05-02T03:07:58.389Z,3.80
2018-05-02T03:10:27.608Z,3.90
2018-05-02T03:12:57.355Z,3.90
2018-05-02T03:15:26.564Z,3.90
2018-05-02T03:17:55.893Z,3.90
2018-05-02T03:20:25.962Z,3.90
2018-05-02T03:22:55.300Z,3.80
2018-05-02T03:25:24.520Z,3.90
2018-05-02T03:27:54.604Z,3.80
2018-05-02T03:30:25.542Z,3.80
2018-05-02T03:32:55.862Z,3.80
2018-05-02T03:35:25.078Z,3.80
2018-05-02T03:37:54.460Z,3.90
2018-05-02T03:40:23.676Z,4.00
2018-05-02T03:42:52.978Z,4.10
2018-05-02T03:45:22.190Z,4.10
2018-05-02T03:47:52.281Z,4.20
2018-05-02T03:50:21.635Z,4.20
2018-05-02T03:52:51.130Z,4.20
2018-05-02T03:55:21.101Z,4.30
2018-05-02T03:57:50.314Z,4.20
2018-05-02T04:00:37.992Z,4.30
2018-05-02T04:03:25.044Z,4.30
2018-05-02T04:06:10.608Z,4.40
2018-05-02T04:08:40.013Z,4.50
2018-05-02T04:11:09.188Z,4.50
2018-05-02T04:13:38.503Z,4.60
2018-05-02T04:16:07.722Z,4.70
2018-05-02T04:18:37.077Z,4.70
2018-05-02T04:21:06.290Z,4.80
2018-05-02T04:23:35.519Z,4.80
2018-05-02T04:26:04.898Z,4.90
2018-05-02T04:28:34.330Z,4.90
2018-05-02T04:31:03.720Z,5.10
2018-05-02T04:33:32.925Z,5.10
2018-05-02T04:36:02.283Z,5.20
2018-05-02T04:38:32.254Z,5.30
2018-05-02T04:41:01.610Z,5.30
2018-05-02T04:43:30.922Z,5.40
2018-05-02T04:46:00.239Z,5.50
2018-05-02T04:48:29.483Z,5.60
2018-05-02T04:50:58.859Z,5.70
2018-05-02T04:53:28.069Z,5.80
2018-05-02T04:55:57.402Z,5.90
2018-05-02T04:58:26.615Z,6.00
2018-05-02T05:00:56.699Z,6.20
2018-05-02T05:03:25.941Z,6.20
2018-05-02T05:05:55.263Z,6.20
2018-05-02T05:08:24.479Z,6.30
2018-05-02T05:10:53.699Z,6.30
2018-05-02T05:13:23.123Z,6.40
2018-05-02T05:15:52.300Z,6.50
2018-05-02T05:18:21.623Z,8.00
2018-05-02T05:20:51.670Z,11.00
2018-05-02T05:23:20.958Z,11.00
2018-05-02T05:25:50.187Z,12.20
2018-05-02T05:28:19.562Z,13.00
2018-05-02T05:30:48.759Z,14.00
2018-05-02T05:33:18.857Z,15.20
2018-05-02T05:35:48.088Z,15.20
2018-05-02T05:38:17.429Z,15.60
2018-05-02T05:40:46.663Z,16.10
2018-05-02T05:43:16.067Z,16.10
2018-05-02T05:45:46.083Z,15.90
2018-05-02T05:48:15.415Z,15.90
2018-05-02T05:50:44.654Z,16.00
2018-05-02T05:53:14.005Z,16.10
2018-05-02T05:55:43.243Z,16.20
2018-05-02T05:58:12.617Z,15.60
2018-05-02T06:00:41.909Z,15.80
2018-05-02T06:03:11.884Z,16.00
2018-05-02T06:05:41.636Z,16.10
2018-05-02T06:08:10.873Z,16.10
2018-05-02T06:10:40.402Z,16.20
2018-05-02T06:13:09.643Z,15.70
2018-05-02T06:15:38.994Z,14.90
2018-05-02T06:18:08.234Z,14.60
2018-05-02T06:20:37.589Z,15.00
2018-05-02T06:23:07.349Z,14.70
2018-05-02T06:25:37.450Z,15.90
2018-05-02T06:28:06.670Z,15.90
2018-05-02T06:30:36.009Z,15.10
2018-05-02T06:33:05.268Z,14.90
2018-05-02T06:35:34.620Z,14.90
2018-05-02T06:38:03.860Z,15.10
2018-05-02T06:40:33.222Z,14.80
2018-05-02T06:43:03.229Z,15.00
2018-05-02T06:45:32.564Z,14.90
2018-05-02T06:48:01.803Z,15.00
2018-05-02T06:50:31.121Z,15.80
2018-05-02T06:53:00.359Z,15.80
2018-05-02T06:55:29.975Z,16.50
2018-05-02T06:57:59.250Z,16.10
2018-05-02T07:00:28.603Z,16.20
2018-05-02T07:02:58.589Z,17.90
2018-05-02T07:05:27.830Z,17.90
2018-05-02T07:07:57.213Z,18.30
2018-05-02T07:10:26.424Z,18.10
2018-05-02T07:12:56.515Z,16.40
2018-05-02T07:15:25.736Z,16.40
2018-05-02T07:17:55.062Z,16.90
2018-05-02T07:20:24.304Z,17.90
2018-05-02T07:22:53.639Z,18.30
2018-05-02T07:25:22.863Z,18.50
2018-05-02T07:27:52.194Z,18.20
2018-05-02T07:30:21.428Z,18.20
2018-05-02T07:32:51.652Z,18.80
2018-05-02T07:35:20.762Z,18.70
2018-05-02T07:37:50.096Z,18.90
2018-05-02T07:40:19.603Z,18.50
2018-05-02T07:42:48.927Z,18.60
2018-05-02T07:45:18.153Z,17.50
2018-05-02T07:47:47.478Z,17.30
2018-05-02T07:50:18.359Z,17.00
2018-05-02T07:52:47.955Z,16.90
2018-05-02T07:55:17.208Z,16.70
2018-05-02T07:57:46.426Z,15.80
2018-05-02T08:00:15.810Z,15.10
2018-05-02T08:02:45.010Z,14.50
2018-05-02T08:05:15.314Z,13.70
2018-05-02T08:07:45.140Z,13.70
2018-05-02T08:10:14.469Z,13.30
2018-05-02T08:12:43.710Z,13.40
2018-05-02T08:15:13.128Z,13.60
2018-05-02T08:17:42.359Z,13.70
2018-05-02T08:20:11.682Z,13.90
2018-05-02T08:22:40.921Z,13.90
2018-05-02T08:25:10.258Z,13.80
2018-05-02T08:27:39.485Z,14.00
2018-05-02T08:30:08.844Z,14.10
2018-05-02T08:32:38.079Z,14.10
2018-05-02T08:35:07.435Z,14.10
2018-05-02T08:37:36.663Z,14.20
2018-05-02T08:40:06.754Z,14.40
2018-05-02T08:42:35.982Z,14.40
2018-05-02T08:45:05.314Z,14.50
2018-05-02T08:47:34.548Z,14.70
2018-05-02T08:50:03.787Z,14.50
2018-05-02T08:52:33.120Z,14.50
2018-05-02T08:55:02.377Z,14.70
2018-05-02T08:57:31.749Z,15.00
2018-05-02T09:00:01.694Z,15.40
2018-05-02T09:02:31.035Z,15.30
2018-05-02T09:05:00.306Z,15.30
2018-05-02T09:07:29.616Z,15.30
2018-05-02T09:09:58.847Z,15.30
2018-05-02T09:12:28.238Z,15.30
2018-05-02T09:14:58.519Z,15.60
2018-05-02T09:17:27.988Z,15.60
2018-05-02T09:19:57.228Z,15.90
2018-05-02T09:22:27.328Z,15.60
2018-05-02T09:24:57.552Z,15.60
2018-05-02T09:27:26.890Z,15.60
2018-05-02T09:29:56.113Z,15.50
2018-05-02T09:32:25.500Z,15.70
2018-05-02T09:34:54.741Z,15.90
2018-05-02T09:37:24.080Z,16.00
2018-05-02T09:39:53.307Z,16.10
2018-05-02T09:42:22.643Z,16.10
2018-05-02T09:44:51.879Z,16.40
2018-05-02T09:47:21.998Z,16.40
2018-05-02T09:49:51.992Z,16.40
2018-05-02T09:52:21.219Z,16.40
2018-05-02T09:54:51.335Z,16.30
2018-05-02T09:57:20.570Z,16.30
2018-05-02T09:59:49.910Z,16.40
2018-05-02T10:02:19.146Z,16.60
2018-05-02T10:04:48.474Z,16.60
2018-05-02T10:07:17.698Z,16.50
2018-05-02T10:09:47.036Z,16.20
2018-05-02T10:12:17.037Z,16.30
2018-05-02T10:14:46.371Z,16.30
2018-05-02T10:17:15.633Z,16.60
2018-05-02T10:19:44.963Z,16.60
2018-05-02T10:22:14.205Z,16.60
2018-05-02T10:24:43.602Z,16.10
2018-05-02T10:27:12.832Z,16.30
2018-05-02T10:29:42.173Z,16.40
2018-05-02T10:32:14.147Z,16.20
2018-05-02T10:34:43.497Z,16.20
2018-05-02T10:37:12.725Z,16.20
2018-05-02T10:39:42.830Z,16.90
2018-05-02T10:42:12.066Z,16.90
2018-05-02T10:44:41.444Z,17.30
2018-05-02T10:47:10.677Z,17.30
2018-05-02T10:49:40.022Z,17.20
2018-05-02T10:52:09.275Z,17.20
2018-05-02T10:54:38.611Z,17.60
2018-05-02T10:57:07.915Z,17.70
2018-05-02T10:59:37.248Z,17.40
2018-05-02T11:02:06.583Z,17.60
2018-05-02T11:04:35.824Z,17.60
2018-05-02T11:07:05.162Z,17.30
2018-05-02T11:09:34.390Z,17.20
2018-05-02T11:12:03.731Z,17.20
2018-05-02T11:14:32.963Z,17.00
2018-05-02T11:17:03.110Z,16.90
2018-05-02T11:19:32.508Z,16.90
2018-05-02T11:22:02.145Z,17.10
2018-05-02T11:24:31.404Z,17.20
2018-05-02T11:27:00.783Z,17.20
2018-05-02T11:29:30.003Z,17.30
2018-05-02T11:31:59.851Z,17.40
2018-05-02T11:34:29.087Z,17.50
2018-05-02T11:36:58.439Z,17.30
2018-05-02T11:39:27.682Z,17.20
2018-05-02T11:41:57.034Z,17.20
2018-05-02T11:44:26.459Z,17.10
2018-05-02T11:46:55.799Z,17.10
2018-05-02T11:49:25.033Z,17.10
2018-05-02T11:51:54.406Z,17.40
2018-05-02T11:54:23.704Z,17.50
2018-05-02T11:56:52.930Z,17.70
2018-05-02T11:59:22.272Z,17.70
2018-05-02T12:01:51.507Z,17.40
2018-05-02T12:04:21.629Z,17.40
2018-05-02T12:06:51.128Z,17.40
2018-05-02T12:09:20.463Z,17.40
2018-05-02T12:11:49.705Z,17.60
2018-05-02T12:14:19.065Z,17.80
2018-05-02T12:16:48.326Z,17.90
2018-05-02T12:19:17.658Z,17.50
2018-05-02T12:21:46.886Z,17.50
2018-05-02T12:24:16.376Z,17.40
2018-05-02T12:26:45.607Z,17.40
2018-05-02T12:29:14.961Z,17.60
2018-05-02T12:31:44.202Z,17.60
2018-05-02T12:34:13.539Z,17.70
2018-05-02T12:36:42.776Z,17.80
2018-05-02T12:39:12.131Z,17.80
2018-05-02T12:41:41.369Z,17.60
2018-05-02T12:44:10.715Z,17.90
2018-05-02T12:46:39.998Z,18.00
2018-05-02T12:49:10.058Z,17.80
2018-05-02T12:51:39.408Z,17.80
2018-05-02T12:54:08.688Z,17.80
2018-05-02T12:56:38.805Z,17.80
2018-05-02T12:59:08.803Z,18.20
2018-05-02T13:01:38.151Z,18.10
2018-05-02T13:04:07.395Z,18.10
2018-05-02T13:06:36.750Z,18.20
2018-05-02T13:09:05.994Z,17.90
2018-05-02T13:11:35.339Z,17.70
2018-05-02T13:14:04.626Z,17.90
2018-05-02T13:16:34.015Z,17.80
2018-05-02T13:19:03.214Z,17.70
2018-05-02T13:21:32.687Z,17.80
2018-05-02T13:24:01.930Z,17.80
2018-05-02T13:26:32.034Z,18.10
2018-05-02T13:29:01.270Z,18.00
2018-05-02T13:31:30.611Z,18.40
2018-05-02T13:33:59.855Z,18.60
2018-05-02T13:36:29.215Z,18.70
2018-05-02T13:38:58.667Z,18.80
2018-05-02T13:41:28.016Z,18.70
2018-05-02T13:43:57.379Z,18.60
2018-05-02T13:46:26.645Z,18.40
2018-05-02T13:48:55.900Z,18.40
2018-05-02T13:51:25.139Z,18.50
2018-05-02T13:53:54.484Z,18.20
2018-05-02T13:56:23.721Z,18.30
2018-05-02T13:58:53.061Z,18.40
2018-05-02T14:01:22.326Z,18.50
2018-05-02T14:03:51.670Z,18.50
2018-05-02T14:06:20.933Z,18.70
2018-05-02T14:08:50.316Z,18.70
2018-05-02T14:11:19.606Z,18.70
2018-05-02T14:13:48.955Z,18.30
2018-05-02T14:16:18.196Z,18.30
2018-05-02T14:18:47.544Z,18.40
2018-05-02T14:21:16.799Z,18.40
2018-05-02T14:23:46.148Z,18.50
2018-05-02T14:26:15.382Z,18.60
2018-05-02T14:28:44.727Z,18.50
2018-05-02T14:31:13.978Z,18.30
2018-05-02T14:33:44.101Z,17.90
2018-05-02T14:36:13.330Z,17.90
2018-05-02T14:38:42.673Z,18.00
2018-05-02T14:41:11.927Z,17.80
2018-05-02T14:43:41.260Z,18.00
2018-05-02T14:46:10.502Z,18.10
2018-05-02T14:48:40.626Z,17.90
2018-05-02T14:51:09.866Z,17.90
2018-05-02T14:53:39.111Z,17.90
2018-05-02T14:56:08.466Z,18.10
2018-05-02T14:58:37.726Z,18.30
2018-05-02T15:01:07.034Z,18.20
2018-05-02T15:03:36.266Z,18.40
2018-05-02T15:06:05.616Z,18.40
2018-05-02T15:08:35.622Z,18.40
2018-05-02T15:11:04.977Z,18.30
2018-05-02T15:13:34.217Z,18.40
2018-05-02T15:16:03.552Z,18.30
2018-05-02T15:18:32.798Z,18.30
2018-05-02T15:21:02.138Z,18.10
2018-05-02T15:23:32.154Z,17.80
2018-05-02T15:26:01.516Z,17.80
2018-05-02T15:28:31.023Z,17.70
2018-05-02T15:31:00.366Z,17.60
2018-05-02T15:33:29.679Z,17.50
2018-05-02T15:35:59.787Z,17.50
2018-05-02T15:38:29.790Z,17.40
2018-05-02T15:40:59.134Z,17.40
2018-05-02T15:43:28.378Z,17.40
2018-05-02T15:45:57.727Z,17.40
2018-05-02T15:48:27.021Z,17.50
2018-05-02T15:50:56.530Z,17.70
2018-05-02T15:53:26.418Z,17.70
2018-05-02T15:55:55.677Z,17.70
2018-05-02T15:58:25.129Z,17.60
2018-05-02T16:00:54.268Z,17.60
2018-05-02T16:03:23.607Z,17.80
2018-05-02T16:05:52.848Z,17.90
2018-05-02T16:08:22.248Z,17.80
2018-05-02T16:10:51.458Z,17.80
2018-05-02T16:13:20.813Z,17.90
2018-05-02T16:15:50.074Z,17.80
2018-05-02T16:20:55.308Z,17.30
2018-05-02T16:23:24.631Z,17.30
2018-05-02T16:25:53.887Z,17.40
2018-05-02T16:28:23.247Z,17.20
2018-05-02T16:30:52.483Z,17.10
2018-05-02T16:33:21.865Z,16.80
2018-05-02T16:35:51.066Z,16.70
2018-05-02T16:38:20.459Z,16.60
2018-05-02T16:40:49.689Z,16.70
2018-05-02T16:43:19.056Z,16.70
2018-05-02T16:45:48.288Z,16.70
2018-05-02T16:48:17.630Z,16.80
2018-05-02T16:50:46.866Z,16.60
2018-05-02T16:53:16.201Z,16.50
2018-05-02T16:55:45.438Z,16.50
2018-05-02T16:58:14.934Z,16.40
2018-05-02T17:00:44.177Z,16.50
2018-05-02T17:03:14.623Z,16.50
2018-05-02T17:05:43.972Z,16.60
2018-05-02T17:08:13.204Z,16.50
2018-05-02T17:10:42.544Z,16.50
2018-05-02T17:13:12.245Z,16.40
2018-05-02T17:15:41.551Z,16.40
2018-05-02T17:18:10.787Z,16.20
2018-05-02T17:20:40.147Z,16.30
2018-05-02T17:23:09.376Z,16.10
2018-05-02T17:25:39.691Z,16.10
2018-05-02T17:28:08.922Z,16.00
2018-05-02T17:30:38.590Z,16.00
2018-05-02T17:33:07.816Z,16.00
2018-05-02T17:35:37.164Z,16.10
2018-05-02T17:38:06.402Z,16.10
2018-05-02T17:40:36.510Z,15.90
2018-05-02T17:43:06.826Z,15.90
2018-05-02T17:45:36.290Z,15.90
2018-05-02T17:48:05.526Z,15.90
2018-05-02T17:50:34.852Z,15.90
2018-05-02T17:53:04.900Z,15.80
2018-05-02T17:55:34.264Z,15.80
2018-05-02T17:58:03.475Z,15.70
2018-05-02T18:00:32.698Z,15.60
2018-05-02T18:03:02.039Z,15.50
2018-05-02T18:05:31.315Z,15.40
2018-05-02T18:08:01.375Z,15.20
2018-05-02T18:10:30.781Z,15.20
2018-05-02T18:13:00.113Z,15.10
2018-05-02T18:15:29.351Z,15.10
2018-05-02T18:17:58.686Z,15.00
2018-05-02T18:20:27.973Z,14.90
2018-05-02T18:22:57.297Z,14.80
2018-05-02T18:25:26.525Z,14.80
2018-05-02T18:27:55.864Z,14.70
2018-05-02T18:30:25.107Z,14.60
2018-05-02T18:32:54.450Z,14.60
2018-05-02T18:35:23.684Z,14.50
2018-05-02T18:37:53.964Z,14.40
2018-05-02T18:40:23.195Z,14.40
2018-05-02T18:42:52.725Z,14.30
2018-05-02T18:45:21.959Z,14.20
2018-05-02T18:47:51.296Z,14.10
2018-05-02T18:50:20.550Z,14.10
2018-05-02T18:52:50.041Z,14.00
2018-05-02T18:55:20.103Z,13.90
2018-05-02T18:57:49.344Z,13.90
2018-05-02T19:00:18.675Z,13.80
2018-05-02T19:02:47.915Z,13.70
2018-05-02T19:05:17.313Z,13.70
2018-05-02T19:07:46.551Z,13.70
2018-05-02T19:10:15.942Z,13.60
2018-05-02T19:12:45.203Z,13.50
2018-05-02T19:15:14.536Z,13.50
2018-05-02T19:17:49.079Z,13.60
2018-05-02T19:20:23.897Z,13.60
2018-05-02T19:22:53.150Z,13.50
2018-05-02T19:25:28.037Z,13.40
2018-05-02T19:27:57.426Z,13.40
2018-05-02T19:30:26.763Z,13.30
2018-05-02T19:33:01.553Z,13.30
2018-05-02T19:35:31.123Z,13.30
2018-05-02T19:38:00.396Z,13.20
2018-05-02T19:40:35.918Z,13.20
2018-05-02T19:43:10.644Z,13.20
2018-05-02T19:45:40.046Z,13.10
2018-05-02T19:48:09.279Z,13.10
2018-05-02T19:50:38.646Z,13.10
2018-05-02T19:53:07.875Z,13.00
2018-05-02T19:55:37.961Z,13.00
2018-05-02T19:58:07.214Z,13.00
2018-05-02T20:00:42.016Z,12.90
2018-05-02T20:03:11.255Z,12.90
2018-05-02T20:05:40.553Z,12.80
2018-05-02T20:08:15.466Z,12.80
2018-05-02T20:10:50.779Z,12.70
2018-05-02T20:13:25.540Z,12.70
2018-05-02T20:15:54.831Z,12.70
2018-05-02T20:18:24.153Z,12.70
2018-05-02T20:20:53.382Z,12.60
2018-05-02T20:23:22.718Z,12.60
2018-05-02T20:25:51.946Z,12.60
2018-05-02T20:28:21.293Z,12.60
2018-05-02T20:30:50.569Z,12.60
2018-05-02T20:33:20.626Z,12.50
2018-05-02T20:35:49.855Z,12.50
2018-05-02T20:38:19.948Z,12.40
2018-05-02T20:40:49.185Z,12.40
2018-05-02T20:43:18.520Z,12.40
2018-05-02T20:45:48.608Z,12.40
2018-05-02T20:48:17.988Z,12.40
2018-05-02T20:50:47.986Z,12.30
2018-05-02T20:53:17.324Z,12.40
2018-05-02T20:55:46.558Z,12.30
2018-05-02T20:58:15.896Z,12.30
2018-05-02T21:00:45.155Z,12.20
2018-05-02T21:03:14.514Z,12.20
2018-05-02T21:05:43.765Z,12.10
2018-05-02T21:08:13.158Z,12.10
2018-05-02T21:10:42.400Z,12.10
2018-05-02T21:13:11.747Z,12.10
2018-05-02T21:15:40.987Z,12.00
2018-05-02T21:18:10.323Z,12.00
2018-05-02T21:20:39.624Z,12.00
2018-05-02T21:23:09.335Z,11.90
2018-05-02T21:25:38.711Z,11.80
2018-05-02T21:28:07.948Z,11.80
2018-05-02T21:30:38.038Z,11.70
2018-05-02T21:33:07.709Z,11.70
2018-05-02T21:35:37.059Z,11.70
2018-05-02T21:38:06.300Z,11.70
2018-05-02T21:40:35.639Z,11.70
2018-05-02T21:43:04.886Z,11.60
2018-05-02T21:45:34.217Z,11.60
2018-05-02T21:48:03.544Z,11.70
2018-05-02T21:50:32.909Z,11.70
2018-05-02T21:53:02.150Z,11.60
2018-05-02T21:55:31.495Z,11.50
2018-05-02T21:58:00.726Z,11.60
2018-05-02T22:00:29.955Z,11.60
2018-05-02T22:02:59.292Z,11.50
2018-05-02T22:05:28.530Z,11.50
2018-05-02T22:07:57.879Z,11.50
2018-05-02T22:10:27.876Z,11.40
2018-05-02T22:12:57.419Z,11.40
2018-05-02T22:15:26.638Z,11.40
2018-05-02T22:17:56.293Z,11.30
2018-05-02T22:20:25.669Z,11.10
2018-05-02T22:22:55.006Z,11.00
2018-05-02T22:25:24.269Z,10.90
2018-05-02T22:27:53.603Z,10.80
2018-05-02T22:30:22.847Z,10.80
2018-05-02T22:32:52.239Z,10.80
2018-05-02T22:35:21.479Z,10.80
2018-05-02T22:37:50.828Z,10.80
2018-05-02T22:40:20.087Z,10.80
2018-05-02T22:42:49.324Z,10.80
2018-05-02T22:45:18.656Z,10.70
2018-05-02T22:47:47.885Z,10.70
2018-05-02T22:50:17.478Z,10.70
2018-05-02T22:52:46.716Z,10.70
2018-05-02T22:55:16.831Z,10.70
2018-05-02T22:57:46.126Z,10.70
2018-05-02T23:00:15.430Z,10.70
2018-05-02T23:02:44.781Z,10.70
2018-05-02T23:05:14.018Z,10.70
2018-05-02T23:07:43.250Z,10.60
2018-05-02T23:10:12.599Z,10.60
2018-05-02T23:12:42.021Z,10.40
2018-05-02T23:15:11.417Z,10.40
2018-05-02T23:17:40.657Z,10.40
2018-05-02T23:20:09.987Z,10.40
2018-05-02T23:22:39.226Z,10.30
2018-05-02T23:25:08.625Z,10.30
2018-05-02T23:27:37.856Z,10.30
2018-05-02T23:30:07.187Z,10.30
2018-05-02T23:32:36.422Z,10.30
2018-05-02T23:35:05.762Z,10.30
2018-05-02T23:37:35.770Z,10.20
2018-05-02T23:40:05.880Z,10.20
2018-05-02T23:42:35.125Z,10.10
2018-05-02T23:45:04.438Z,10.20
2018-05-02T23:47:33.674Z,10.20
2018-05-02T23:50:03.059Z,10.20
2018-05-02T23:52:32.300Z,10.20
2018-05-02T23:55:01.551Z,10.10
2018-05-02T23:57:30.883Z,10.00
